Time;durP1;ratioP1;P1;durP2;ratioP2;P2;SDS_P1;SDS_P2;PMS_P1;PMS_P2;Temp;Humidity;BMP_temperature;BMP_pressure;BME280_temperature;BME280_humidity;BME280_pressure;Samples;Min_cycle;Max_cycle;Signal;HPM_P1;HPM_P2
2023/02/20 00:00:31;;;;;;;3.22;1.20;;;;;;;6.19;100.00;96809.84;1030406;28;20033;-69
2023/02/20 00:01:02;;;;;;;3.30;1.73;;;;;;;6.22;100.00;96812.06;1025346;28;20038;-69
2023/02/20 00:01:32;;;;;;;3.85;1.40;;;;;;;6.14;100.00;96803.47;1018456;29;20633;-69
2023/02/20 00:02:03;;;;;;;3.50;1.08;;;;;;;6.20;100.00;96801.81;1018100;29;20024;-69
2023/02/20 00:02:33;;;;;;;4.97;1.38;;;;;;;6.24;100.00;96813.44;1018532;29;20048;-69
2023/02/20 00:03:04;;;;;;;3.35;1.20;;;;;;;6.18;100.00;96816.09;1015220;29;20040;-69
2023/02/20 00:03:34;;;;;;;6.28;1.90;;;;;;;6.22;100.00;96827.69;1014740;29;20106;-69
2023/02/20 00:04:05;;;;;;;2.97;1.17;;;;;;;6.23;100.00;96824.84;1021476;28;20488;-69
2023/02/20 00:04:35;;;;;;;5.10;1.30;;;;;;;6.28;100.00;96821.66;1022657;28;20087;-70
2023/02/20 00:05:06;;;;;;;3.17;1.38;;;;;;;6.27;100.00;96818.25;1026178;28;20034;-69
2023/02/20 00:05:36;;;;;;;3.88;1.33;;;;;;;6.24;100.00;96823.88;1026587;28;20488;-69
2023/02/20 00:06:07;;;;;;;3.55;1.42;;;;;;;6.24;100.00;96833.50;1034375;28;20746;-68
2023/02/20 00:06:37;;;;;;;2.80;1.30;;;;;;;6.25;100.00;96809.81;1038224;28;20025;-69
2023/02/20 00:07:08;;;;;;;2.97;1.13;;;;;;;6.25;100.00;96811.63;1034677;28;20519;-68
2023/02/20 00:07:39;;;;;;;2.63;1.38;;;;;;;6.25;100.00;96822.06;1026428;28;20038;-71
2023/02/20 00:08:09;;;;;;;5.55;1.42;;;;;;;6.24;100.00;96820.47;1022360;28;20100;-70
2023/02/20 00:08:40;;;;;;;2.90;1.50;;;;;;;6.09;100.00;96802.47;1022498;28;20020;-70
2023/02/20 00:09:10;;;;;;;4.85;1.23;;;;;;;6.22;100.00;96820.66;1022489;28;20031;-70
2023/02/20 00:09:41;;;;;;;4.07;1.25;;;;;;;6.22;100.00;96819.88;1026356;28;20686;-68
2023/02/20 00:10:11;;;;;;;3.45;1.30;;;;;;;6.19;100.00;96808.03;1026005;28;20061;-69
2023/02/20 00:10:42;;;;;;;4.65;1.10;;;;;;;6.23;100.00;96826.66;1022523;28;20050;-69
2023/02/20 00:11:12;;;;;;;3.30;1.15;;;;;;;6.14;100.00;96813.09;1026602;28;20033;-71
2023/02/20 00:11:43;;;;;;;3.83;1.42;;;;;;;6.24;100.00;96828.28;1026186;28;20412;-69
2023/02/20 00:12:13;;;;;;;2.97;1.73;;;;;;;6.22;100.00;96823.28;1034537;28;20022;-69
2023/02/20 00:12:44;;;;;;;1.48;1.00;;;;;;;6.22;100.00;96828.47;1030377;28;20093;-69
2023/02/20 00:13:14;;;;;;;2.83;1.35;;;;;;;6.22;100.00;96823.28;1029625;28;20026;-71
2023/02/20 00:13:46;;;;;;;4.00;1.40;;;;;;;6.19;100.00;96815.06;1026398;28;20027;-67
2023/02/20 00:14:16;;;;;;;3.60;1.13;;;;;;;6.20;100.00;96825.28;1022365;28;20041;-68
2023/02/20 00:14:46;;;;;;;1.40;1.00;;;;;;;6.21;100.00;96818.28;1026681;28;20743;-71
2023/02/20 00:15:20;;;;;;;3.22;1.30;;;;;;;6.15;100.00;96814.69;1030113;28;20029;-67
2023/02/20 00:15:51;;;;;;;3.50;1.98;;;;;;;6.21;100.00;96821.69;1026252;28;20100;-71
2023/02/20 00:16:21;;;;;;;2.23;1.17;;;;;;;6.24;100.00;96816.06;1026340;28;20751;-68
2023/02/20 00:16:51;;;;;;;3.90;1.27;;;;;;;6.25;100.00;96820.25;1026121;28;20224;-69
2023/02/20 00:17:22;;;;;;;2.97;1.23;;;;;;;6.26;100.00;96816.63;1026372;28;20023;-68
2023/02/20 00:17:52;;;;;;;3.70;1.23;;;;;;;6.26;100.00;96815.84;1030626;28;20759;-68
2023/02/20 00:18:23;;;;;;;3.58;1.42;;;;;;;6.24;100.00;96812.66;1030764;28;20047;-68
2023/02/20 00:18:53;;;;;;;3.03;1.35;;;;;;;6.24;100.00;96818.66;1038701;28;20467;-70
2023/02/20 00:19:24;;;;;;;1.95;1.13;;;;;;;6.24;100.00;96813.44;1037862;28;20021;-68
2023/02/20 00:19:54;;;;;;;2.45;1.30;;;;;;;6.24;100.00;96812.66;1034275;28;20049;-68
2023/02/20 00:20:25;;;;;;;6.05;1.45;;;;;;;6.23;100.00;96811.03;1030456;28;20536;-71
2023/02/20 00:20:56;;;;;;;1.83;1.00;;;;;;;6.22;100.00;96812.84;1030333;28;20058;-69
2023/02/20 00:21:26;;;;;;;5.00;1.20;;;;;;;6.21;100.00;96823.50;1030530;28;20253;-69
2023/02/20 00:21:57;;;;;;;4.35;1.40;;;;;;;6.22;100.00;96823.28;1030667;28;20023;-70
2023/02/20 00:22:27;;;;;;;3.65;1.20;;;;;;;6.22;100.00;96815.44;1030480;28;20440;-69
2023/02/20 00:22:58;;;;;;;2.88;1.50;;;;;;;6.18;100.00;96816.88;1030314;28;20046;-69
2023/02/20 00:23:31;;;;;;;3.75;1.67;;;;;;;6.21;100.00;96819.06;1026479;28;20067;-69
2023/02/20 00:24:02;;;;;;;2.33;1.17;;;;;;;6.23;100.00;96826.66;1022403;29;20552;-69
2023/02/20 00:24:33;;;;;;;2.28;1.10;;;;;;;6.24;100.00;96823.88;1018548;29;20335;-69
2023/02/20 00:25:03;;;;;;;2.22;1.23;;;;;;;6.24;100.00;96817.88;1022774;28;20271;-69
2023/02/20 00:25:34;;;;;;;2.55;1.08;;;;;;;6.21;100.00;96813.88;1030539;28;20799;-68
2023/02/20 00:26:08;;;;;;;2.90;1.30;;;;;;;6.15;100.00;96819.91;1026416;28;20027;-69
2023/02/20 00:26:44;;;;;;;4.68;1.20;;;;;;;6.20;100.00;96820.06;1010663;29;20127;-69
2023/02/20 00:27:14;;;;;;;1.83;1.15;;;;;;;6.19;100.00;96809.84;1018116;29;20306;-69
2023/02/20 00:27:45;;;;;;;2.38;1.17;;;;;;;6.20;100.00;96812.25;1018303;29;20275;-69
2023/02/20 00:28:15;;;;;;;2.28;1.15;;;;;;;6.21;100.00;96818.28;1014520;29;20024;-69
2023/02/20 00:28:46;;;;;;;2.35;1.00;;;;;;;6.19;100.00;96815.88;1015201;29;20066;-69
2023/02/20 00:29:21;;;;;;;5.32;1.48;;;;;;;6.20;100.00;96820.06;1021895;28;20027;-68
2023/02/20 00:29:52;;;;;;;5.78;2.45;;;;;;;6.18;100.00;96809.06;1026288;28;20038;-70
2023/02/20 00:30:23;;;;;;;2.53;1.42;;;;;;;6.16;100.00;96810.28;1027154;28;20296;-69
2023/02/20 00:30:53;;;;;;;2.70;1.33;;;;;;;6.18;100.00;96801.25;1027117;28;20034;-70
2023/02/20 00:31:24;;;;;;;2.80;1.25;;;;;;;6.13;100.00;96795.84;1030441;28;20257;-69
2023/02/20 00:31:55;;;;;;;2.47;1.15;;;;;;;6.18;100.00;96803.84;1025882;28;20019;-68
2023/02/20 00:32:26;;;;;;;4.43;2.22;;;;;;;6.18;100.00;96803.84;1022362;29;20023;-69
2023/02/20 00:32:57;;;;;;;3.17;1.40;;;;;;;6.21;100.00;96807.84;1030440;28;20258;-68
2023/02/20 00:33:30;;;;;;;4.07;1.30;;;;;;;6.18;100.00;96803.84;1034388;28;20014;-70
2023/02/20 00:34:00;;;;;;;5.07;1.50;;;;;;;6.19;100.00;96812.47;1036892;28;20025;-68
2023/02/20 00:34:31;;;;;;;1.70;1.33;;;;;;;6.20;100.00;96812.25;1034391;28;21234;-69
2023/02/20 00:35:01;;;;;;;5.00;1.83;;;;;;;6.17;100.00;96817.06;1030201;28;20062;-70
2023/02/20 00:35:32;;;;;;;2.17;1.23;;;;;;;6.20;100.00;96811.44;1026755;28;20026;-68
2023/02/20 00:36:03;;;;;;;1.88;1.45;;;;;;;6.20;100.00;96808.84;1030350;28;20116;-69
2023/02/20 00:36:33;;;;;;;4.75;1.55;;;;;;;6.20;100.00;96806.22;1026318;28;20592;-70
2023/02/20 00:37:04;;;;;;;2.28;1.35;;;;;;;6.20;100.00;96811.44;1023159;28;20278;-68
2023/02/20 00:37:34;;;;;;;4.90;0.95;;;;;;;6.18;100.00;96801.25;1030312;28;20030;-69
2023/02/20 00:38:05;;;;;;;3.70;1.20;;;;;;;6.19;100.00;96807.25;1030250;28;20026;-69
2023/02/20 00:38:35;;;;;;;2.55;1.20;;;;;;;6.18;100.00;96806.47;1030523;28;20034;-71
2023/02/20 00:39:06;;;;;;;2.65;1.20;;;;;;;6.16;100.00;96811.06;1034117;28;20537;-68
2023/02/20 00:39:36;;;;;;;3.80;1.85;;;;;;;6.17;100.00;96807.47;1029804;28;20077;-69
2023/02/20 00:40:07;;;;;;;2.88;1.20;;;;;;;6.14;100.00;96810.50;1030496;28;20033;-69
2023/02/20 00:40:38;;;;;;;4.38;1.30;;;;;;;6.17;100.00;96801.44;1030131;28;20022;-70
2023/02/20 00:41:10;;;;;;;1.95;1.23;;;;;;;6.19;100.00;96805.44;1030494;28;20026;-69
2023/02/20 00:41:40;;;;;;;2.78;1.08;;;;;;;6.21;100.00;96811.25;1030258;28;20030;-69
2023/02/20 00:42:11;;;;;;;7.05;1.42;;;;;;;6.20;100.00;96811.44;1032128;28;20277;-69
2023/02/20 00:42:41;;;;;;;3.97;1.73;;;;;;;6.04;100.00;96786.69;1034716;28;20472;-69
2023/02/20 00:43:12;;;;;;;2.85;1.23;;;;;;;6.20;100.00;96811.44;1025886;28;20108;-70
2023/02/20 00:43:42;;;;;;;3.13;2.03;;;;;;;6.18;100.00;96809.06;1022375;29;20118;-69
2023/02/20 00:44:13;;;;;;;2.92;1.38;;;;;;;6.17;100.00;96807.47;1025824;28;20118;-68
2023/02/20 00:44:43;;;;;;;1.73;1.10;;;;;;;6.18;100.00;96816.88;1030177;28;20117;-69
2023/02/20 00:45:15;;;;;;;2.28;1.10;;;;;;;6.11;100.00;96797.88;1030335;28;20061;-70
2023/02/20 00:45:45;;;;;;;3.83;1.33;;;;;;;6.17;100.00;96810.06;1026218;28;20038;-69
2023/02/20 00:46:16;;;;;;;4.25;1.25;;;;;;;6.22;100.00;96810.25;1030032;28;20601;-71
2023/02/20 00:46:46;;;;;;;3.03;1.33;;;;;;;6.14;100.00;96810.50;1030847;28;20092;-69
2023/02/20 00:47:17;;;;;;;4.70;1.30;;;;;;;6.20;100.00;96811.44;1034179;28;20022;-69
2023/02/20 00:47:47;;;;;;;4.13;1.25;;;;;;;6.14;100.00;96813.88;1034309;28;20628;-68
2023/02/20 00:48:17;;;;;;;5.25;1.20;;;;;;;6.12;100.00;96808.06;1034323;28;20640;-70
2023/02/20 00:48:49;;;;;;;2.95;1.30;;;;;;;6.18;100.00;96814.28;1034457;28;20060;-69
2023/02/20 00:49:20;;;;;;;3.13;1.25;;;;;;;6.16;100.00;96820.69;1033847;28;20531;-70
2023/02/20 00:49:50;;;;;;;2.08;1.27;;;;;;;6.19;100.00;96821.06;1029919;28;20277;-69
2023/02/20 00:50:21;;;;;;;4.50;1.88;;;;;;;6.19;100.00;96830.69;1030310;28;20392;-69
2023/02/20 00:50:51;;;;;;;3.92;1.42;;;;;;;6.16;100.00;96816.28;1030677;28;20026;-69
2023/02/20 00:51:22;;;;;;;3.20;1.60;;;;;;;6.14;100.00;96823.53;1034314;28;20030;-71
2023/02/20 00:51:52;;;;;;;2.75;1.42;;;;;;;6.14;100.00;96823.53;1034488;28;20061;-69
2023/02/20 00:52:23;;;;;;;3.92;1.77;;;;;;;6.16;100.00;96818.09;1030420;28;20117;-68
2023/02/20 00:52:53;;;;;;;2.78;1.20;;;;;;;6.18;100.00;96823.91;1030202;28;20062;-69
2023/02/20 00:53:24;;;;;;;4.35;1.50;;;;;;;6.15;100.00;96819.91;1030625;28;20030;-69
2023/02/20 00:53:54;;;;;;;2.22;1.33;;;;;;;6.14;100.00;96826.13;1034420;28;20534;-70
2023/02/20 00:54:24;;;;;;;4.30;1.70;;;;;;;6.12;100.00;96826.31;1038484;28;20028;-69
2023/02/20 00:54:55;;;;;;;4.78;1.52;;;;;;;6.08;100.00;96821.75;1037979;28;20029;-69
2023/02/20 00:55:25;;;;;;;5.07;1.73;;;;;;;6.11;100.00;96823.94;1032416;28;20038;-69
2023/02/20 00:55:56;;;;;;;2.95;1.30;;;;;;;6.09;100.00;96825.94;1034147;28;20468;-69
2023/02/20 00:56:26;;;;;;;1.25;1.13;;;;;;;6.07;100.00;96822.72;1034120;28;20033;-70
2023/02/20 00:56:57;;;;;;;4.82;1.10;;;;;;;6.12;100.00;96820.31;1034364;28;20026;-69
2023/02/20 00:57:27;;;;;;;4.45;1.73;;;;;;;6.13;100.00;96837.53;1026303;28;20667;-68
2023/02/20 00:57:58;;;;;;;3.28;1.27;;;;;;;6.17;100.00;96828.31;1021916;29;20031;-68
2023/02/20 00:58:28;;;;;;;3.50;1.20;;;;;;;6.16;100.00;96831.91;1018401;29;20035;-71
2023/02/20 00:58:59;;;;;;;3.67;1.30;;;;;;;6.12;100.00;96830.72;1022498;28;20042;-69
2023/02/20 00:59:29;;;;;;;1.85;1.15;;;;;;;6.13;100.00;96832.31;1023545;28;20031;-68
2023/02/20 01:00:00;;;;;;;3.10;1.25;;;;;;;6.14;100.00;96839.16;1026391;28;20037;-70
2023/02/20 01:00:31;;;;;;;2.13;1.85;;;;;;;6.08;100.00;96822.53;1030152;28;20510;-70
2023/02/20 01:01:01;;;;;;;5.05;1.42;;;;;;;6.14;100.00;96836.56;1030210;28;20798;-69
2023/02/20 01:01:32;;;;;;;2.92;1.65;;;;;;;6.13;100.00;96832.31;1026228;28;20053;-69
2023/02/20 01:02:02;;;;;;;4.30;1.30;;;;;;;6.15;100.00;96830.31;1022308;28;20034;-69
2023/02/20 01:02:32;;;;;;;2.20;1.30;;;;;;;6.17;100.00;96836.13;1026366;28;20029;-69
2023/02/20 01:03:03;;;;;;;2.28;1.30;;;;;;;6.19;100.00;96836.72;1030406;28;20519;-69
2023/02/20 01:03:33;;;;;;;2.45;1.58;;;;;;;6.16;100.00;96837.13;1034400;28;20029;-70
2023/02/20 01:04:04;;;;;;;5.07;1.40;;;;;;;6.18;100.00;96842.94;1034561;28;20037;-69
2023/02/20 01:04:34;;;;;;;3.92;1.30;;;;;;;6.20;100.00;96834.91;1034314;28;20387;-71
2023/02/20 01:05:05;;;;;;;4.68;1.23;;;;;;;6.13;100.00;96821.91;1038304;28;20018;-69
2023/02/20 01:05:35;;;;;;;1.90;1.17;;;;;;;6.16;100.00;96829.31;1034438;28;20053;-69
2023/02/20 01:06:06;;;;;;;3.00;1.50;;;;;;;6.14;100.00;96839.94;1034282;28;20076;-69
2023/02/20 01:06:36;;;;;;;3.20;1.88;;;;;;;6.14;100.00;96839.94;1035858;28;20518;-69
2023/02/20 01:07:07;;;;;;;3.95;1.50;;;;;;;6.12;100.00;96822.91;1038651;28;20025;-70
2023/02/20 01:07:37;;;;;;;4.35;2.38;;;;;;;6.13;100.00;96838.31;1042485;28;20028;-69
2023/02/20 01:08:07;;;;;;;2.95;1.20;;;;;;;6.13;100.00;96827.09;1038146;28;20119;-69
2023/02/20 01:08:38;;;;;;;3.60;1.15;;;;;;;6.14;100.00;96831.34;1034490;28;20638;-69
2023/02/20 01:09:08;;;;;;;3.72;1.30;;;;;;;6.08;100.00;96829.56;1034708;28;20061;-70
2023/02/20 01:09:39;;;;;;;3.13;1.50;;;;;;;6.10;100.00;96828.34;1032024;28;20411;-69
2023/02/20 01:10:10;;;;;;;6.28;1.30;;;;;;;6.12;100.00;96830.72;1034249;28;20060;-71
2023/02/20 01:10:40;;;;;;;3.08;1.33;;;;;;;6.09;100.00;96828.53;1026723;28;20027;-69
2023/02/20 01:11:11;;;;;;;3.10;1.30;;;;;;;6.09;100.00;96821.50;1022542;29;20027;-70
2023/02/20 01:11:42;;;;;;;4.07;1.45;;;;;;;6.14;100.00;96820.91;1023970;28;20027;-69
2023/02/20 01:12:12;;;;;;;3.83;1.55;;;;;;;6.13;100.00;96821.91;1030200;28;20133;-69
2023/02/20 01:12:43;;;;;;;2.33;1.42;;;;;;;6.14;100.00;96823.53;1026462;28;20266;-70
2023/02/20 01:13:13;;;;;;;4.25;1.60;;;;;;;6.12;100.00;96825.53;1030526;28;20072;-69
2023/02/20 01:13:43;;;;;;;2.20;1.30;;;;;;;6.11;100.00;96824.72;1026543;28;20043;-69
2023/02/20 01:14:14;;;;;;;2.00;1.48;;;;;;;6.06;100.00;96815.91;1030315;28;20781;-69
2023/02/20 01:14:44;;;;;;;2.25;1.38;;;;;;;6.11;100.00;96818.72;1030194;28;20041;-69
2023/02/20 01:15:15;;;;;;;4.45;1.63;;;;;;;6.11;100.00;96823.94;1030325;28;20038;-71
2023/02/20 01:15:45;;;;;;;2.28;1.20;;;;;;;6.11;100.00;96818.72;1034226;28;20022;-69
2023/02/20 01:16:16;;;;;;;2.88;1.77;;;;;;;6.06;100.00;96810.72;1030134;28;20030;-69
2023/02/20 01:16:50;;;;;;;3.30;1.33;;;;;;;6.06;100.00;96816.72;1027596;28;20035;-69
2023/02/20 01:17:20;;;;;;;2.33;1.40;;;;;;;6.04;100.00;96817.94;1022188;29;20027;-69
2023/02/20 01:17:51;;;;;;;1.75;1.30;;;;;;;6.09;100.00;96831.16;1022430;29;20700;-69
2023/02/20 01:18:21;;;;;;;2.70;1.40;;;;;;;6.12;100.00;96826.31;1025378;28;20041;-70
2023/02/20 01:18:51;;;;;;;2.42;1.33;;;;;;;6.04;100.00;96812.75;1030062;28;20049;-69
2023/02/20 01:19:22;;;;;;;2.88;1.42;;;;;;;6.10;100.00;96827.53;1028430;28;20493;-69
2023/02/20 01:19:54;;;;;;;4.60;1.50;;;;;;;6.08;100.00;96832.16;1026186;28;20037;-70
2023/02/20 01:20:25;;;;;;;5.78;1.38;;;;;;;6.04;100.00;96820.56;1026319;28;20026;-70
2023/02/20 01:20:55;;;;;;;5.25;1.67;;;;;;;6.08;100.00;96825.13;1026118;28;20274;-69
2023/02/20 01:21:26;;;;;;;1.80;1.23;;;;;;;6.08;100.00;96825.13;1029560;28;20073;-69
2023/02/20 01:21:56;;;;;;;5.35;2.08;;;;;;;6.09;100.00;96818.13;1030267;28;20026;-69
2023/02/20 01:22:27;;;;;;;3.13;1.40;;;;;;;6.08;100.00;96819.13;1038142;28;20029;-69
2023/02/20 01:22:57;;;;;;;1.50;1.00;;;;;;;6.09;100.00;96821.50;1034336;28;20040;-70
2023/02/20 01:23:27;;;;;;;6.32;1.77;;;;;;;6.07;100.00;96823.53;1034181;28;20668;-69
2023/02/20 01:23:58;;;;;;;2.97;1.40;;;;;;;6.08;100.00;96822.53;1030343;28;20042;-69
2023/02/20 01:24:28;;;;;;;3.15;1.00;;;;;;;6.07;100.00;96827.94;1034235;28;20030;-69
2023/02/20 01:24:59;;;;;;;3.05;1.58;;;;;;;6.06;100.00;96832.34;1030376;28;20058;-69
2023/02/20 01:25:29;;;;;;;4.88;1.50;;;;;;;6.09;100.00;96837.16;1033305;28;20115;-69
2023/02/20 01:26:00;;;;;;;3.17;1.38;;;;;;;6.07;100.00;96822.72;1030451;28;20042;-69
2023/02/20 01:26:30;;;;;;;5.35;1.55;;;;;;;6.06;100.00;96832.34;1030319;28;20034;-68
2023/02/20 01:27:01;;;;;;;3.83;1.63;;;;;;;6.06;100.00;96836.75;1022326;28;20039;-68
2023/02/20 01:27:31;;;;;;;2.25;1.58;;;;;;;5.99;100.00;96823.75;1022332;28;20096;-69
2023/02/20 01:28:02;;;;;;;3.15;1.65;;;;;;;5.97;100.00;96812.75;1026342;28;20047;-70
2023/02/20 01:28:32;;;;;;;3.35;1.35;;;;;;;6.04;100.00;96823.97;1030015;28;20471;-69
2023/02/20 01:29:03;;;;;;;2.80;1.27;;;;;;;6.02;100.00;96832.97;1026433;28;20074;-69
2023/02/20 01:29:33;;;;;;;1.60;1.35;;;;;;;5.98;100.00;96821.38;1033467;28;20571;-69
2023/02/20 01:30:05;;;;;;;10.27;1.77;;;;;;;6.02;100.00;96831.16;1030380;28;20506;-68
2023/02/20 01:30:35;;;;;;;3.75;1.60;;;;;;;6.06;100.00;96836.75;1030092;28;20034;-67
2023/02/20 01:31:06;;;;;;;5.63;1.60;;;;;;;6.02;100.00;96825.97;1030388;28;20864;-71
2023/02/20 01:31:36;;;;;;;3.22;1.63;;;;;;;6.03;100.00;96826.75;1030484;28;20037;-68
2023/02/20 01:32:11;;;;;;;3.03;1.50;;;;;;;6.00;100.00;96837.59;1024140;28;20034;-69
2023/02/20 01:32:42;;;;;;;2.40;1.80;;;;;;;6.01;100.00;96826.19;1022217;29;20131;-70
2023/02/20 01:33:12;;;;;;;4.40;1.88;;;;;;;6.03;100.00;96824.94;1022886;28;20331;-68
2023/02/20 01:33:43;;;;;;;2.58;1.20;;;;;;;6.04;100.00;96830.97;1027740;28;20690;-70
2023/02/20 01:34:14;;;;;;;2.05;1.23;;;;;;;6.02;100.00;96819.94;1026843;28;20646;-69
2023/02/20 01:34:44;;;;;;;5.18;1.58;;;;;;;6.05;100.00;96824.75;1030097;28;20030;-69
2023/02/20 01:35:15;;;;;;;4.78;1.83;;;;;;;5.99;100.00;96821.16;1030147;28;20034;-68
2023/02/20 01:35:45;;;;;;;2.92;1.50;;;;;;;6.02;100.00;96830.38;1038216;28;20071;-70
2023/02/20 01:36:16;;;;;;;2.30;1.50;;;;;;;6.03;100.00;96826.75;1038312;28;20033;-68
2023/02/20 01:36:50;;;;;;;4.57;1.63;;;;;;;5.98;100.00;96824.78;1030756;28;20053;-69
2023/02/20 01:37:21;;;;;;;3.83;1.80;;;;;;;6.00;100.00;96822.78;1034103;28;20059;-69
2023/02/20 01:37:51;;;;;;;8.13;1.80;;;;;;;6.01;100.00;96826.19;1034141;28;20269;-69
2023/02/20 01:38:21;;;;;;;2.97;1.30;;;;;;;5.98;100.00;96821.38;1030417;28;20493;-71
2023/02/20 01:38:52;;;;;;;4.55;1.80;;;;;;;5.93;100.00;96810.75;1027541;28;20042;-70
2023/02/20 01:39:24;;;;;;;3.38;1.40;;;;;;;5.95;100.00;96817.38;1033527;28;20061;-71
2023/02/20 01:39:55;;;;;;;3.13;1.52;;;;;;;5.95;100.00;96813.97;1030246;28;20053;-68
2023/02/20 01:40:26;;;;;;;2.75;2.10;;;;;;;5.97;100.00;96817.16;1030121;28;20261;-71
2023/02/20 01:40:56;;;;;;;4.32;1.83;;;;;;;5.99;100.00;96820.38;1026703;28;20484;-69
2023/02/20 01:41:27;;;;;;;2.58;1.67;;;;;;;5.96;100.00;96815.56;1030413;28;20022;-68
2023/02/20 01:42:01;;;;;;;2.15;1.60;;;;;;;5.97;100.00;96814.53;1030095;28;20026;-69
2023/02/20 01:42:31;;;;;;;3.20;1.55;;;;;;;5.94;100.00;96810.56;1027245;28;20114;-70
2023/02/20 01:43:02;;;;;;;3.72;1.90;;;;;;;5.98;100.00;96813.56;1026341;28;20835;-69
2023/02/20 01:43:32;;;;;;;5.07;2.13;;;;;;;5.97;100.00;96809.34;1026282;28;20031;-69
2023/02/20 01:44:03;;;;;;;2.83;1.80;;;;;;;5.89;100.00;96798.13;1026545;28;20079;-68
2023/02/20 01:44:35;;;;;;;2.35;1.40;;;;;;;5.96;100.00;96812.97;1030155;28;20030;-69
2023/02/20 01:45:20;;;;;;;4.72;2.10;;;;;;;5.97;100.00;96809.34;1026248;28;20058;-70
2023/02/20 01:45:51;;;;;;;3.28;2.00;;;;;;;5.95;100.00;96799.13;1030348;28;20629;-68
2023/02/20 01:46:27;;;;;;;2.45;1.83;;;;;;;5.95;100.00;96806.16;1034272;28;20304;-69
2023/02/20 01:46:58;;;;;;;3.63;1.50;;;;;;;5.94;100.00;96805.38;1031563;28;20027;-67
2023/02/20 01:47:29;;;;;;;4.03;1.75;;;;;;;5.95;100.00;96804.34;1028438;28;20274;-69
2023/02/20 01:47:59;;;;;;;1.92;1.20;;;;;;;5.95;100.00;96806.16;1030136;28;20281;-69
2023/02/20 01:48:30;;;;;;;7.22;2.50;;;;;;;5.94;100.00;96802.75;1026286;28;20103;-69
2023/02/20 01:49:05;;;;;;;4.03;1.63;;;;;;;5.95;100.00;96803.56;1030373;28;20026;-69
2023/02/20 01:49:44;;;;;;;2.53;1.58;;;;;;;5.96;100.00;96810.34;1025433;28;20019;-69
2023/02/20 01:50:16;;;;;;;2.35;1.48;;;;;;;5.96;100.00;96802.53;1027830;28;20301;-69
2023/02/20 01:50:46;;;;;;;4.10;1.73;;;;;;;5.90;100.00;96796.31;1022396;29;20275;-69
2023/02/20 01:51:17;;;;;;;3.38;1.63;;;;;;;5.91;100.00;96793.50;1030104;28;20795;-69
2023/02/20 01:51:51;;;;;;;4.00;1.35;;;;;;;5.97;100.00;96806.72;1026938;28;20081;-69
2023/02/20 01:52:26;;;;;;;4.32;2.28;;;;;;;5.94;100.00;96801.97;1030035;28;20068;-68
2023/02/20 01:52:59;;;;;;;4.07;1.92;;;;;;;5.94;100.00;96801.97;1030170;28;20326;-70
2023/02/20 01:53:30;;;;;;;2.35;1.50;;;;;;;5.95;100.00;96806.16;1030487;28;20266;-70
2023/02/20 01:54:01;;;;;;;2.85;1.67;;;;;;;5.90;100.00;96797.13;1032761;28;20289;-68
2023/02/20 01:54:31;;;;;;;4.18;1.60;;;;;;;5.90;100.00;96797.13;1029925;28;20022;-69
2023/02/20 01:55:05;;;;;;;4.25;1.60;;;;;;;5.97;100.00;96806.72;1026459;28;20772;-69
2023/02/20 01:55:39;;;;;;;3.67;1.65;;;;;;;5.98;100.00;96808.34;1028432;28;20030;-68
2023/02/20 01:56:09;;;;;;;3.50;1.33;;;;;;;5.91;100.00;96798.72;1027942;28;20417;-68
2023/02/20 01:56:40;;;;;;;3.47;1.65;;;;;;;5.95;100.00;96803.56;1027607;28;20344;-68
2023/02/20 01:57:13;;;;;;;3.53;2.00;;;;;;;5.97;100.00;96802.34;1030939;28;20026;-70
2023/02/20 01:57:48;;;;;;;3.25;1.25;;;;;;;5.98;100.00;96800.53;1031053;28;20224;-69
2023/02/20 01:58:28;;;;;;;4.28;1.70;;;;;;;5.95;100.00;96793.94;1026569;28;20273;-69
2023/02/20 01:58:58;;;;;;;6.15;2.00;;;;;;;5.95;100.00;96787.91;1025319;28;20274;-70
2023/02/20 01:59:30;;;;;;;3.72;1.80;;;;;;;6.00;100.00;96795.91;1030305;28;20277;-68
2023/02/20 02:00:11;;;;;;;3.90;1.67;;;;;;;5.98;100.00;96793.50;1025225;28;20090;-71
2023/02/20 02:00:41;;;;;;;3.78;1.48;;;;;;;6.00;100.00;96795.91;1022882;29;20270;-70
2023/02/20 02:01:12;;;;;;;4.18;1.70;;;;;;;5.95;100.00;96796.53;1019058;29;20292;-69
2023/02/20 02:01:42;;;;;;;2.20;1.75;;;;;;;5.94;100.00;96796.75;1028375;28;20035;-69
2023/02/20 02:02:13;;;;;;;3.30;1.60;;;;;;;6.00;100.00;96808.94;1027089;28;20487;-69
2023/02/20 02:02:47;;;;;;;4.25;1.50;;;;;;;5.94;100.00;96796.75;1031168;28;20026;-69
2023/02/20 02:03:23;;;;;;;2.72;1.50;;;;;;;5.95;100.00;96796.53;1030230;28;20682;-69
2023/02/20 02:03:56;;;;;;;4.68;1.90;;;;;;;6.00;100.00;96793.28;1029706;28;20265;-68
2023/02/20 02:04:26;;;;;;;3.30;1.70;;;;;;;5.97;100.00;96801.53;1019179;29;20268;-69
2023/02/20 02:04:57;;;;;;;4.22;1.73;;;;;;;5.99;100.00;96796.91;1026596;28;20262;-68
2023/02/20 02:05:28;;;;;;;3.03;1.90;;;;;;;5.95;100.00;96796.53;1026435;28;20433;-69
2023/02/20 02:05:59;;;;;;;7.00;2.20;;;;;;;6.00;100.00;96799.34;1031166;28;20030;-68
2023/02/20 02:06:31;;;;;;;4.03;1.60;;;;;;;6.03;100.00;96798.88;1026743;28;20027;-68
2023/02/20 02:07:02;;;;;;;4.68;1.77;;;;;;;6.04;100.00;96799.72;1026876;28;20526;-68
2023/02/20 02:07:32;;;;;;;3.13;1.30;;;;;;;6.01;100.00;96798.31;1018901;29;20279;-70
2023/02/20 02:08:03;;;;;;;2.67;1.50;;;;;;;5.98;100.00;96790.13;1026873;28;20582;-69
2023/02/20 02:08:35;;;;;;;3.63;1.80;;;;;;;6.02;100.00;96802.50;1022826;29;20019;-70
2023/02/20 02:09:11;;;;;;;4.47;1.67;;;;;;;6.01;100.00;96803.53;1022711;29;20035;-69
2023/02/20 02:09:57;;;;;;;4.85;1.38;;;;;;;6.01;100.00;96805.34;1025967;28;20281;-69
2023/02/20 02:10:42;;;;;;;3.05;1.80;;;;;;;6.05;100.00;96802.09;1029963;28;20267;-68
2023/02/20 02:11:15;;;;;;;2.92;1.65;;;;;;;6.01;100.00;96795.72;1019475;29;20267;-69
2023/02/20 02:11:46;;;;;;;3.10;1.65;;;;;;;6.01;100.00;96803.53;1024947;28;20358;-69
2023/02/20 02:12:16;;;;;;;2.75;1.63;;;;;;;6.04;100.00;96812.75;1030940;28;20266;-69
2023/02/20 02:12:48;;;;;;;6.03;1.77;;;;;;;6.03;100.00;96805.91;1035342;28;20327;-69
2023/02/20 02:13:19;;;;;;;2.70;1.60;;;;;;;6.03;100.00;96805.91;1030921;28;20033;-69
2023/02/20 02:13:49;;;;;;;3.05;1.85;;;;;;;6.01;100.00;96802.72;1035122;28;20296;-68
2023/02/20 02:14:20;;;;;;;4.85;2.00;;;;;;;6.01;100.00;96802.72;1038678;28;20026;-69
2023/02/20 02:14:50;;;;;;;7.30;1.88;;;;;;;6.02;100.00;96804.31;1028288;28;20070;-70
2023/02/20 02:15:21;;;;;;;4.65;1.95;;;;;;;5.98;100.00;96777.09;1038800;28;20076;-68
2023/02/20 02:15:52;;;;;;;9.07;1.67;;;;;;;6.05;100.00;96794.28;1030709;28;20505;-69
2023/02/20 02:16:29;;;;;;;5.78;1.95;;;;;;;6.04;100.00;96786.69;1027354;28;20254;-70
2023/02/20 02:17:05;;;;;;;3.90;1.55;;;;;;;6.02;100.00;96799.13;1033016;28;20373;-68
2023/02/20 02:17:43;;;;;;;4.63;1.67;;;;;;;6.04;100.00;96799.72;1034842;28;20635;-69
2023/02/20 02:18:27;;;;;;;9.20;2.38;;;;;;;6.04;100.00;96797.91;1031047;28;20694;-68
2023/02/20 02:19:31;;;;;;;6.97;2.20;;;;;;;6.05;100.00;96796.09;1022888;29;20856;-69
2023/02/20 02:20:38;;;;;;;5.07;1.65;;;;;;;6.02;100.00;96796.50;1025734;28;20317;-68
2023/02/20 02:21:28;;;;;;;3.20;1.75;;;;;;;6.01;100.00;96797.53;1038928;28;20371;-70
2023/02/20 02:22:25;;;;;;;3.05;1.90;;;;;;;6.01;100.00;96793.09;1039449;28;20269;-69
2023/02/20 02:23:14;;;;;;;5.95;1.70;;;;;;;6.02;100.00;96791.28;1038464;28;20021;-69
2023/02/20 02:24:12;;;;;;;3.58;1.63;;;;;;;6.01;100.00;96794.91;1035315;28;20778;-69
2023/02/20 02:25:02;;;;;;;2.53;1.80;;;;;;;6.00;100.00;96785.47;1031288;28;20253;-69
2023/02/20 02:25:51;;;;;;;2.95;1.60;;;;;;;6.00;100.00;96788.09;1037071;28;20407;-69
2023/02/20 02:26:43;;;;;;;4.15;1.52;;;;;;;5.99;100.00;96786.50;1040366;28;20403;-69
2023/02/20 02:27:23;;;;;;;4.82;1.35;;;;;;;5.98;100.00;96785.69;1037978;28;20741;-70
2023/02/20 02:28:21;;;;;;;3.80;2.33;;;;;;;6.01;100.00;96792.31;1032839;28;20265;-70
2023/02/20 02:28:57;;;;;;;4.68;2.03;;;;;;;6.01;100.00;96781.88;1035313;28;20510;-69
2023/02/20 02:29:35;;;;;;;3.03;1.55;;;;;;;6.00;100.00;96785.47;1030771;28;20639;-69
2023/02/20 02:30:18;;;;;;;3.63;1.23;;;;;;;6.02;100.00;96788.69;1030963;28;20269;-68
2023/02/20 02:30:57;;;;;;;2.10;1.60;;;;;;;6.02;100.00;96778.28;1031214;28;20263;-69
2023/02/20 02:31:53;;;;;;;4.22;2.22;;;;;;;6.00;100.00;96781.09;1035343;28;20307;-69
2023/02/20 02:32:29;;;;;;;2.88;1.63;;;;;;;5.97;100.00;96771.09;1039597;28;20314;-68
2023/02/20 02:32:59;;;;;;;3.25;1.95;;;;;;;5.84;100.00;96755.47;1039520;28;20819;-68